sensor_id;sensor_type;location;lat;lon;timestamp;P1;durP1;ratioP1;P2;durP2;ratioP2
4290;SDS011;2159;50.906;7.152;2022-12-29T00:02:13;0.60;;;0.60;;
4290;SDS011;2159;50.906;7.152;2022-12-29T00:04:43;1.10;;;0.67;;
4290;SDS011;2159;50.906;7.152;2022-12-29T00:07:11;0.60;;;0.60;;
4290;SDS011;2159;50.906;7.152;2022-12-29T00:09:38;0.80;;;0.80;;
4290;SDS011;2159;50.906;7.152;2022-12-29T00:12:06;0.63;;;0.63;;
4290;SDS011;2159;50.906;7.152;2022-12-29T00:14:33;0.70;;;0.70;;
4290;SDS011;2159;50.906;7.152;2022-12-29T00:17:18;0.90;;;0.90;;
4290;SDS011;2159;50.906;7.152;2022-12-29T00:19:47;0.80;;;0.80;;
4290;SDS011;2159;50.906;7.152;2022-12-29T00:22:32;0.83;;;0.83;;
4290;SDS011;2159;50.906;7.152;2022-12-29T00:25:17;0.60;;;0.60;;
4290;SDS011;2159;50.906;7.152;2022-12-29T00:28:03;0.90;;;0.90;;
4290;SDS011;2159;50.906;7.152;2022-12-29T00:30:47;1.00;;;0.77;;
4290;SDS011;2159;50.906;7.152;2022-12-29T00:33:33;0.70;;;0.70;;
4290;SDS011;2159;50.906;7.152;2022-12-29T00:36:20;0.63;;;0.63;;
4290;SDS011;2159;50.906;7.152;2022-12-29T00:38:49;0.70;;;0.70;;
4290;SDS011;2159;50.906;7.152;2022-12-29T00:41:36;0.60;;;0.60;;
4290;SDS011;2159;50.906;7.152;2022-12-29T00:44:21;0.70;;;0.70;;
4290;SDS011;2159;50.906;7.152;2022-12-29T00:46:48;0.60;;;0.60;;
4290;SDS011;2159;50.906;7.152;2022-12-29T00:49:16;0.90;;;0.63;;
4290;SDS011;2159;50.906;7.152;2022-12-29T00:52:01;0.60;;;0.60;;
4290;SDS011;2159;50.906;7.152;2022-12-29T00:54:29;0.87;;;0.87;;
4290;SDS011;2159;50.906;7.152;2022-12-29T00:56:57;0.60;;;0.60;;
4290;SDS011;2159;50.906;7.152;2022-12-29T00:59:25;0.60;;;0.60;;
4290;SDS011;2159;50.906;7.152;2022-12-29T01:01:53;0.70;;;0.70;;
4290;SDS011;2159;50.906;7.152;2022-12-29T01:04:21;1.63;;;0.70;;
4290;SDS011;2159;50.906;7.152;2022-12-29T01:06:49;0.60;;;0.60;;
4290;SDS011;2159;50.906;7.152;2022-12-29T01:09:18;0.50;;;0.50;;
4290;SDS011;2159;50.906;7.152;2022-12-29T01:12:04;1.47;;;0.70;;
4290;SDS011;2159;50.906;7.152;2022-12-29T01:14:32;0.77;;;0.50;;
4290;SDS011;2159;50.906;7.152;2022-12-29T01:17:00;0.50;;;0.50;;
4290;SDS011;2159;50.906;7.152;2022-12-29T01:19:27;0.63;;;0.63;;
4290;SDS011;2159;50.906;7.152;2022-12-29T01:21:55;1.27;;;0.70;;
4290;SDS011;2159;50.906;7.152;2022-12-29T01:24:24;0.60;;;0.60;;
4290;SDS011;2159;50.906;7.152;2022-12-29T01:26:52;0.50;;;0.50;;
4290;SDS011;2159;50.906;7.152;2022-12-29T01:29:20;0.50;;;0.50;;
4290;SDS011;2159;50.906;7.152;2022-12-29T01:31:48;1.03;;;0.60;;
4290;SDS011;2159;50.906;7.152;2022-12-29T01:34:16;0.50;;;0.50;;
4290;SDS011;2159;50.906;7.152;2022-12-29T01:36:44;0.60;;;0.60;;
4290;SDS011;2159;50.906;7.152;2022-12-29T01:39:12;0.50;;;0.50;;
4290;SDS011;2159;50.906;7.152;2022-12-29T01:41:41;0.57;;;0.57;;
4290;SDS011;2159;50.906;7.152;2022-12-29T01:46:54;0.60;;;0.60;;
4290;SDS011;2159;50.906;7.152;2022-12-29T01:49:23;0.60;;;0.60;;
4290;SDS011;2159;50.906;7.152;2022-12-29T01:51:52;0.50;;;0.50;;
4290;SDS011;2159;50.906;7.152;2022-12-29T01:54:22;0.70;;;0.70;;
4290;SDS011;2159;50.906;7.152;2022-12-29T01:56:53;0.80;;;0.60;;
4290;SDS011;2159;50.906;7.152;2022-12-29T01:59:24;0.60;;;0.60;;
4290;SDS011;2159;50.906;7.152;2022-12-29T02:01:54;1.23;;;0.63;;
4290;SDS011;2159;50.906;7.152;2022-12-29T02:04:22;0.60;;;0.60;;
4290;SDS011;2159;50.906;7.152;2022-12-29T02:06:51;0.57;;;0.57;;
4290;SDS011;2159;50.906;7.152;2022-12-29T02:09:19;4.40;;;0.70;;
4290;SDS011;2159;50.906;7.152;2022-12-29T02:11:47;0.60;;;0.60;;
4290;SDS011;2159;50.906;7.152;2022-12-29T02:14:16;0.70;;;0.70;;
4290;SDS011;2159;50.906;7.152;2022-12-29T02:16:48;0.60;;;0.60;;
4290;SDS011;2159;50.906;7.152;2022-12-29T02:22:09;0.73;;;0.70;;
4290;SDS011;2159;50.906;7.152;2022-12-29T02:24:45;0.90;;;0.73;;
4290;SDS011;2159;50.906;7.152;2022-12-29T02:30:07;0.70;;;0.70;;
4290;SDS011;2159;50.906;7.152;2022-12-29T02:32:40;0.73;;;0.73;;
4290;SDS011;2159;50.906;7.152;2022-12-29T02:35:14;1.73;;;0.80;;
4290;SDS011;2159;50.906;7.152;2022-12-29T02:37:46;0.87;;;0.70;;
4290;SDS011;2159;50.906;7.152;2022-12-29T02:40:18;3.07;;;0.73;;
4290;SDS011;2159;50.906;7.152;2022-12-29T02:42:50;1.00;;;0.90;;
4290;SDS011;2159;50.906;7.152;2022-12-29T02:45:20;1.03;;;0.90;;
4290;SDS011;2159;50.906;7.152;2022-12-29T02:47:51;1.00;;;0.87;;
4290;SDS011;2159;50.906;7.152;2022-12-29T02:50:23;0.70;;;0.70;;
4290;SDS011;2159;50.906;7.152;2022-12-29T02:52:53;0.70;;;0.70;;
4290;SDS011;2159;50.906;7.152;2022-12-29T02:55:22;1.07;;;0.83;;
4290;SDS011;2159;50.906;7.152;2022-12-29T02:57:48;5.50;;;0.80;;
4290;SDS011;2159;50.906;7.152;2022-12-29T03:00:16;0.60;;;0.60;;
4290;SDS011;2159;50.906;7.152;2022-12-29T03:05:39;1.33;;;0.90;;
4290;SDS011;2159;50.906;7.152;2022-12-29T03:08:12;0.73;;;0.70;;
4290;SDS011;2159;50.906;7.152;2022-12-29T03:10:45;1.10;;;1.00;;
4290;SDS011;2159;50.906;7.152;2022-12-29T03:13:18;0.77;;;0.77;;
4290;SDS011;2159;50.906;7.152;2022-12-29T03:16:10;3.20;;;0.80;;
4290;SDS011;2159;50.906;7.152;2022-12-29T03:18:41;0.60;;;0.60;;
4290;SDS011;2159;50.906;7.152;2022-12-29T03:21:14;0.77;;;0.77;;
4290;SDS011;2159;50.906;7.152;2022-12-29T03:23:43;1.13;;;0.90;;
4290;SDS011;2159;50.906;7.152;2022-12-29T03:26:14;0.60;;;0.60;;
4290;SDS011;2159;50.906;7.152;2022-12-29T03:28:44;0.70;;;0.70;;
4290;SDS011;2159;50.906;7.152;2022-12-29T03:31:13;2.00;;;0.70;;
4290;SDS011;2159;50.906;7.152;2022-12-29T03:33:42;2.50;;;0.80;;
4290;SDS011;2159;50.906;7.152;2022-12-29T03:36:13;0.60;;;0.60;;
4290;SDS011;2159;50.906;7.152;2022-12-29T03:38:44;0.70;;;0.70;;
4290;SDS011;2159;50.906;7.152;2022-12-29T03:41:13;0.80;;;0.70;;
4290;SDS011;2159;50.906;7.152;2022-12-29T03:43:41;1.83;;;0.73;;
4290;SDS011;2159;50.906;7.152;2022-12-29T03:46:08;0.60;;;0.60;;
4290;SDS011;2159;50.906;7.152;2022-12-29T03:48:36;0.93;;;0.70;;
4290;SDS011;2159;50.906;7.152;2022-12-29T03:51:04;1.83;;;0.80;;
4290;SDS011;2159;50.906;7.152;2022-12-29T03:53:33;1.10;;;0.90;;
4290;SDS011;2159;50.906;7.152;2022-12-29T03:56:00;0.73;;;0.73;;
4290;SDS011;2159;50.906;7.152;2022-12-29T03:58:27;0.80;;;0.70;;
4290;SDS011;2159;50.906;7.152;2022-12-29T04:00:55;0.90;;;0.80;;
4290;SDS011;2159;50.906;7.152;2022-12-29T04:03:23;0.60;;;0.60;;
4290;SDS011;2159;50.906;7.152;2022-12-29T04:05:51;1.00;;;0.90;;
4290;SDS011;2159;50.906;7.152;2022-12-29T04:08:18;0.70;;;0.70;;
4290;SDS011;2159;50.906;7.152;2022-12-29T04:10:48;1.03;;;0.90;;
4290;SDS011;2159;50.906;7.152;2022-12-29T04:13:16;0.70;;;0.70;;
4290;SDS011;2159;50.906;7.152;2022-12-29T04:15:44;0.60;;;0.60;;
4290;SDS011;2159;50.906;7.152;2022-12-29T04:18:11;0.57;;;0.57;;
4290;SDS011;2159;50.906;7.152;2022-12-29T04:20:39;0.67;;;0.67;;
4290;SDS011;2159;50.906;7.152;2022-12-29T04:23:24;0.80;;;0.80;;
4290;SDS011;2159;50.906;7.152;2022-12-29T04:25:53;0.80;;;0.80;;
4290;SDS011;2159;50.906;7.152;2022-12-29T04:28:21;1.80;;;0.83;;
4290;SDS011;2159;50.906;7.152;2022-12-29T04:30:49;0.70;;;0.70;;
4290;SDS011;2159;50.906;7.152;2022-12-29T04:33:16;0.87;;;0.70;;
4290;SDS011;2159;50.906;7.152;2022-12-29T04:35:44;0.70;;;0.70;;
4290;SDS011;2159;50.906;7.152;2022-12-29T04:38:14;0.70;;;0.70;;
4290;SDS011;2159;50.906;7.152;2022-12-29T04:40:43;1.47;;;1.37;;
4290;SDS011;2159;50.906;7.152;2022-12-29T04:43:12;0.60;;;0.60;;
4290;SDS011;2159;50.906;7.152;2022-12-29T04:45:42;0.90;;;0.80;;
4290;SDS011;2159;50.906;7.152;2022-12-29T04:48:10;1.30;;;0.70;;
4290;SDS011;2159;50.906;7.152;2022-12-29T04:50:37;0.60;;;0.60;;
4290;SDS011;2159;50.906;7.152;2022-12-29T04:53:05;0.90;;;0.67;;
4290;SDS011;2159;50.906;7.152;2022-12-29T04:55:33;0.60;;;0.60;;
4290;SDS011;2159;50.906;7.152;2022-12-29T04:58:00;0.60;;;0.60;;
4290;SDS011;2159;50.906;7.152;2022-12-29T05:00:29;1.63;;;0.70;;
4290;SDS011;2159;50.906;7.152;2022-12-29T05:02:57;1.17;;;0.70;;
4290;SDS011;2159;50.906;7.152;2022-12-29T05:05:25;1.23;;;0.87;;
4290;SDS011;2159;50.906;7.152;2022-12-29T05:07:52;1.27;;;0.70;;
4290;SDS011;2159;50.906;7.152;2022-12-29T05:10:20;0.80;;;0.80;;
4290;SDS011;2159;50.906;7.152;2022-12-29T05:12:48;0.60;;;0.60;;
4290;SDS011;2159;50.906;7.152;2022-12-29T05:15:15;0.87;;;0.70;;
4290;SDS011;2159;50.906;7.152;2022-12-29T05:17:45;1.87;;;0.70;;
4290;SDS011;2159;50.906;7.152;2022-12-29T05:20:12;0.97;;;0.87;;
4290;SDS011;2159;50.906;7.152;2022-12-29T05:22:40;0.60;;;0.60;;
4290;SDS011;2159;50.906;7.152;2022-12-29T05:25:08;0.70;;;0.70;;
4290;SDS011;2159;50.906;7.152;2022-12-29T05:27:35;0.70;;;0.70;;
4290;SDS011;2159;50.906;7.152;2022-12-29T05:30:03;1.20;;;0.70;;
4290;SDS011;2159;50.906;7.152;2022-12-29T05:32:31;0.80;;;0.67;;
4290;SDS011;2159;50.906;7.152;2022-12-29T05:35:00;0.63;;;0.63;;
4290;SDS011;2159;50.906;7.152;2022-12-29T05:37:28;1.87;;;0.57;;
4290;SDS011;2159;50.906;7.152;2022-12-29T05:39:55;0.60;;;0.60;;
4290;SDS011;2159;50.906;7.152;2022-12-29T05:42:22;0.60;;;0.60;;
4290;SDS011;2159;50.906;7.152;2022-12-29T05:44:50;0.60;;;0.60;;
4290;SDS011;2159;50.906;7.152;2022-12-29T05:47:20;0.50;;;0.50;;
4290;SDS011;2159;50.906;7.152;2022-12-29T05:49:47;1.33;;;0.50;;
4290;SDS011;2159;50.906;7.152;2022-12-29T05:52:16;2.63;;;0.67;;
4290;SDS011;2159;50.906;7.152;2022-12-29T05:54:43;0.60;;;0.60;;
4290;SDS011;2159;50.906;7.152;2022-12-29T05:57:11;0.50;;;0.50;;
4290;SDS011;2159;50.906;7.152;2022-12-29T05:59:38;0.60;;;0.60;;
4290;SDS011;2159;50.906;7.152;2022-12-29T06:02:06;1.00;;;0.53;;
4290;SDS011;2159;50.906;7.152;2022-12-29T06:04:34;0.87;;;0.70;;
4290;SDS011;2159;50.906;7.152;2022-12-29T06:07:01;0.57;;;0.53;;
4290;SDS011;2159;50.906;7.152;2022-12-29T06:09:30;0.90;;;0.53;;
4290;SDS011;2159;50.906;7.152;2022-12-29T06:11:58;0.60;;;0.60;;
4290;SDS011;2159;50.906;7.152;2022-12-29T06:14:25;0.50;;;0.50;;
4290;SDS011;2159;50.906;7.152;2022-12-29T06:16:53;0.53;;;0.53;;
4290;SDS011;2159;50.906;7.152;2022-12-29T06:19:20;0.50;;;0.50;;
4290;SDS011;2159;50.906;7.152;2022-12-29T06:21:48;0.50;;;0.50;;
4290;SDS011;2159;50.906;7.152;2022-12-29T06:24:15;0.50;;;0.50;;
4290;SDS011;2159;50.906;7.152;2022-12-29T06:26:44;2.10;;;0.63;;
4290;SDS011;2159;50.906;7.152;2022-12-29T06:29:12;0.60;;;0.60;;
4290;SDS011;2159;50.906;7.152;2022-12-29T06:31:42;1.03;;;0.60;;
4290;SDS011;2159;50.906;7.152;2022-12-29T06:34:11;1.23;;;0.53;;
4290;SDS011;2159;50.906;7.152;2022-12-29T06:36:39;1.00;;;0.60;;
4290;SDS011;2159;50.906;7.152;2022-12-29T06:39:06;1.13;;;0.50;;
4290;SDS011;2159;50.906;7.152;2022-12-29T06:41:33;0.60;;;0.60;;
4290;SDS011;2159;50.906;7.152;2022-12-29T06:44:02;0.50;;;0.50;;
4290;SDS011;2159;50.906;7.152;2022-12-29T06:46:30;0.60;;;0.60;;
4290;SDS011;2159;50.906;7.152;2022-12-29T06:48:57;0.70;;;0.70;;
4290;SDS011;2159;50.906;7.152;2022-12-29T06:51:25;0.70;;;0.70;;
4290;SDS011;2159;50.906;7.152;2022-12-29T06:53:52;0.70;;;0.60;;
4290;SDS011;2159;50.906;7.152;2022-12-29T06:56:20;0.50;;;0.50;;
4290;SDS011;2159;50.906;7.152;2022-12-29T06:58:47;0.77;;;0.70;;
4290;SDS011;2159;50.906;7.152;2022-12-29T07:01:16;0.60;;;0.60;;
4290;SDS011;2159;50.906;7.152;2022-12-29T07:03:44;0.50;;;0.50;;
4290;SDS011;2159;50.906;7.152;2022-12-29T07:06:11;0.60;;;0.60;;
4290;SDS011;2159;50.906;7.152;2022-12-29T07:08:39;0.53;;;0.53;;
4290;SDS011;2159;50.906;7.152;2022-12-29T07:11:06;0.77;;;0.50;;
4290;SDS011;2159;50.906;7.152;2022-12-29T07:13:34;0.60;;;0.60;;
4290;SDS011;2159;50.906;7.152;2022-12-29T07:16:04;0.50;;;0.50;;
4290;SDS011;2159;50.906;7.152;2022-12-29T07:18:33;1.03;;;0.50;;
4290;SDS011;2159;50.906;7.152;2022-12-29T07:21:01;0.80;;;0.53;;
4290;SDS011;2159;50.906;7.152;2022-12-29T07:23:29;1.17;;;0.60;;
4290;SDS011;2159;50.906;7.152;2022-12-29T07:26:00;1.93;;;0.60;;
4290;SDS011;2159;50.906;7.152;2022-12-29T07:28:28;0.50;;;0.50;;
4290;SDS011;2159;50.906;7.152;2022-12-29T07:30:55;0.60;;;0.60;;
4290;SDS011;2159;50.906;7.152;2022-12-29T07:33:23;0.93;;;0.60;;
4290;SDS011;2159;50.906;7.152;2022-12-29T07:35:52;0.70;;;0.50;;
4290;SDS011;2159;50.906;7.152;2022-12-29T07:38:19;1.73;;;0.93;;
4290;SDS011;2159;50.906;7.152;2022-12-29T07:40:46;0.73;;;0.53;;
4290;SDS011;2159;50.906;7.152;2022-12-29T07:43:14;0.50;;;0.40;;
4290;SDS011;2159;50.906;7.152;2022-12-29T07:45:42;1.20;;;0.50;;
4290;SDS011;2159;50.906;7.152;2022-12-29T07:48:09;1.23;;;0.60;;
4290;SDS011;2159;50.906;7.152;2022-12-29T07:50:37;0.57;;;0.57;;
4290;SDS011;2159;50.906;7.152;2022-12-29T07:53:06;2.00;;;0.50;;
4290;SDS011;2159;50.906;7.152;2022-12-29T07:55:34;0.80;;;0.50;;
4290;SDS011;2159;50.906;7.152;2022-12-29T07:58:01;0.80;;;0.53;;
4290;SDS011;2159;50.906;7.152;2022-12-29T08:00:29;0.70;;;0.67;;
4290;SDS011;2159;50.906;7.152;2022-12-29T08:02:56;0.60;;;0.60;;
4290;SDS011;2159;50.906;7.152;2022-12-29T08:05:24;1.47;;;0.60;;
4290;SDS011;2159;50.906;7.152;2022-12-29T08:07:51;0.83;;;0.60;;
4290;SDS011;2159;50.906;7.152;2022-12-29T08:10:20;0.50;;;0.50;;
4290;SDS011;2159;50.906;7.152;2022-12-29T08:12:49;0.60;;;0.60;;
4290;SDS011;2159;50.906;7.152;2022-12-29T08:15:17;0.60;;;0.60;;
4290;SDS011;2159;50.906;7.152;2022-12-29T08:17:44;3.53;;;1.00;;
4290;SDS011;2159;50.906;7.152;2022-12-29T08:20:11;0.73;;;0.60;;
4290;SDS011;2159;50.906;7.152;2022-12-29T08:22:39;0.70;;;0.70;;
4290;SDS011;2159;50.906;7.152;2022-12-29T08:25:07;0.70;;;0.70;;
4290;SDS011;2159;50.906;7.152;2022-12-29T08:27:36;0.60;;;0.60;;
4290;SDS011;2159;50.906;7.152;2022-12-29T08:30:04;1.23;;;0.70;;
4290;SDS011;2159;50.906;7.152;2022-12-29T08:32:32;0.87;;;0.80;;
4290;SDS011;2159;50.906;7.152;2022-12-29T08:34:59;1.93;;;0.80;;
4290;SDS011;2159;50.906;7.152;2022-12-29T08:37:27;0.70;;;0.60;;
4290;SDS011;2159;50.906;7.152;2022-12-29T08:39:56;1.33;;;0.70;;
4290;SDS011;2159;50.906;7.152;2022-12-29T08:42:24;1.77;;;0.80;;
4290;SDS011;2159;50.906;7.152;2022-12-29T08:44:58;0.70;;;0.70;;
4290;SDS011;2159;50.906;7.152;2022-12-29T08:47:26;2.17;;;1.00;;
4290;SDS011;2159;50.906;7.152;2022-12-29T08:49:53;2.30;;;0.87;;
4290;SDS011;2159;50.906;7.152;2022-12-29T08:52:21;1.00;;;0.70;;
4290;SDS011;2159;50.906;7.152;2022-12-29T08:54:49;1.03;;;0.90;;
4290;SDS011;2159;50.906;7.152;2022-12-29T08:57:16;0.73;;;0.73;;
4290;SDS011;2159;50.906;7.152;2022-12-29T08:59:44;1.87;;;0.90;;
4290;SDS011;2159;50.906;7.152;2022-12-29T09:02:13;1.13;;;0.77;;
4290;SDS011;2159;50.906;7.152;2022-12-29T09:04:48;1.00;;;0.70;;
4290;SDS011;2159;50.906;7.152;2022-12-29T09:07:16;0.80;;;0.80;;
4290;SDS011;2159;50.906;7.152;2022-12-29T09:09:44;0.83;;;0.83;;
4290;SDS011;2159;50.906;7.152;2022-12-29T09:12:12;2.50;;;0.80;;
4290;SDS011;2159;50.906;7.152;2022-12-29T09:14:39;4.43;;;0.80;;
4290;SDS011;2159;50.906;7.152;2022-12-29T09:17:09;2.13;;;0.80;;
4290;SDS011;2159;50.906;7.152;2022-12-29T09:19:55;2.43;;;0.70;;
4290;SDS011;2159;50.906;7.152;2022-12-29T09:22:22;0.97;;;0.77;;
4290;SDS011;2159;50.906;7.152;2022-12-29T09:24:50;2.30;;;1.00;;
4290;SDS011;2159;50.906;7.152;2022-12-29T09:27:17;3.43;;;1.23;;
4290;SDS011;2159;50.906;7.152;2022-12-29T09:29:45;2.40;;;0.80;;
4290;SDS011;2159;50.906;7.152;2022-12-29T09:32:12;1.47;;;0.90;;
4290;SDS011;2159;50.906;7.152;2022-12-29T09:34:44;1.20;;;0.90;;
4290;SDS011;2159;50.906;7.152;2022-12-29T09:37:13;2.80;;;1.00;;
4290;SDS011;2159;50.906;7.152;2022-12-29T09:39:40;1.77;;;0.70;;
4290;SDS011;2159;50.906;7.152;2022-12-29T09:42:12;1.20;;;1.10;;
4290;SDS011;2159;50.906;7.152;2022-12-29T09:44:45;1.53;;;1.00;;
4290;SDS011;2159;50.906;7.152;2022-12-29T09:47:16;1.23;;;0.90;;
4290;SDS011;2159;50.906;7.152;2022-12-29T09:49:45;4.63;;;1.10;;
4290;SDS011;2159;50.906;7.152;2022-12-29T09:52:15;1.67;;;0.80;;
4290;SDS011;2159;50.906;7.152;2022-12-29T09:54:46;1.33;;;0.80;;
4290;SDS011;2159;50.906;7.152;2022-12-29T09:57:28;2.60;;;0.93;;
4290;SDS011;2159;50.906;7.152;2022-12-29T09:59:57;1.83;;;1.07;;
4290;SDS011;2159;50.906;7.152;2022-12-29T10:02:29;1.80;;;0.90;;
4290;SDS011;2159;50.906;7.152;2022-12-29T10:04:58;3.90;;;0.97;;
4290;SDS011;2159;50.906;7.152;2022-12-29T10:07:30;2.40;;;0.90;;
4290;SDS011;2159;50.906;7.152;2022-12-29T10:10:03;2.47;;;1.00;;
4290;SDS011;2159;50.906;7.152;2022-12-29T10:12:36;3.67;;;0.97;;
4290;SDS011;2159;50.906;7.152;2022-12-29T10:15:10;6.03;;;1.53;;
4290;SDS011;2159;50.906;7.152;2022-12-29T10:17:42;3.33;;;0.97;;
4290;SDS011;2159;50.906;7.152;2022-12-29T10:20:18;3.13;;;1.03;;
4290;SDS011;2159;50.906;7.152;2022-12-29T10:22:55;1.63;;;0.90;;
4290;SDS011;2159;50.906;7.152;2022-12-29T10:25:26;1.80;;;1.00;;
4290;SDS011;2159;50.906;7.152;2022-12-29T10:27:59;1.90;;;1.00;;
4290;SDS011;2159;50.906;7.152;2022-12-29T10:30:27;3.70;;;0.90;;
4290;SDS011;2159;50.906;7.152;2022-12-29T10:32:56;4.73;;;1.03;;
4290;SDS011;2159;50.906;7.152;2022-12-29T10:35:26;4.23;;;1.03;;
4290;SDS011;2159;50.906;7.152;2022-12-29T10:37:56;3.53;;;1.17;;
4290;SDS011;2159;50.906;7.152;2022-12-29T10:40:24;3.03;;;1.10;;
4290;SDS011;2159;50.906;7.152;2022-12-29T10:42:54;1.90;;;1.20;;
4290;SDS011;2159;50.906;7.152;2022-12-29T10:45:22;3.33;;;1.17;;
4290;SDS011;2159;50.906;7.152;2022-12-29T10:47:53;2.80;;;0.93;;
4290;SDS011;2159;50.906;7.152;2022-12-29T10:50:23;3.90;;;1.40;;
4290;SDS011;2159;50.906;7.152;2022-12-29T10:52:51;2.47;;;1.10;;
4290;SDS011;2159;50.906;7.152;2022-12-29T10:55:21;6.00;;;1.10;;
4290;SDS011;2159;50.906;7.152;2022-12-29T10:57:49;3.13;;;1.30;;
4290;SDS011;2159;50.906;7.152;2022-12-29T11:00:17;4.00;;;1.50;;
4290;SDS011;2159;50.906;7.152;2022-12-29T11:02:54;4.23;;;1.43;;
4290;SDS011;2159;50.906;7.152;2022-12-29T11:05:26;2.10;;;1.27;;
4290;SDS011;2159;50.906;7.152;2022-12-29T11:07:57;2.20;;;1.00;;
4290;SDS011;2159;50.906;7.152;2022-12-29T11:10:30;3.40;;;1.33;;
4290;SDS011;2159;50.906;7.152;2022-12-29T11:13:01;4.20;;;0.90;;
4290;SDS011;2159;50.906;7.152;2022-12-29T11:15:37;1.43;;;1.10;;
4290;SDS011;2159;50.906;7.152;2022-12-29T11:18:05;2.93;;;1.20;;
4290;SDS011;2159;50.906;7.152;2022-12-29T11:20:43;1.10;;;0.90;;
4290;SDS011;2159;50.906;7.152;2022-12-29T11:23:21;2.33;;;1.03;;
4290;SDS011;2159;50.906;7.152;2022-12-29T11:25:55;1.67;;;0.90;;
4290;SDS011;2159;50.906;7.152;2022-12-29T11:28:32;2.00;;;1.40;;
4290;SDS011;2159;50.906;7.152;2022-12-29T11:31:00;2.70;;;1.50;;
4290;SDS011;2159;50.906;7.152;2022-12-29T11:33:28;2.60;;;1.60;;
4290;SDS011;2159;50.906;7.152;2022-12-29T11:35:57;4.67;;;1.50;;
4290;SDS011;2159;50.906;7.152;2022-12-29T11:38:26;3.87;;;1.00;;
4290;SDS011;2159;50.906;7.152;2022-12-29T11:40:57;1.80;;;1.13;;
4290;SDS011;2159;50.906;7.152;2022-12-29T11:43:26;3.40;;;1.17;;
4290;SDS011;2159;50.906;7.152;2022-12-29T11:45:56;2.80;;;1.30;;
4290;SDS011;2159;50.906;7.152;2022-12-29T11:48:24;1.57;;;1.00;;
4290;SDS011;2159;50.906;7.152;2022-12-29T11:50:53;4.40;;;1.37;;
4290;SDS011;2159;50.906;7.152;2022-12-29T11:53:21;5.47;;;1.20;;
4290;SDS011;2159;50.906;7.152;2022-12-29T11:55:51;5.40;;;1.23;;
4290;SDS011;2159;50.906;7.152;2022-12-29T11:58:27;1.30;;;0.80;;
4290;SDS011;2159;50.906;7.152;2022-12-29T12:00:55;2.70;;;0.90;;
4290;SDS011;2159;50.906;7.152;2022-12-29T12:03:24;1.17;;;1.07;;
4290;SDS011;2159;50.906;7.152;2022-12-29T12:05:54;1.97;;;1.03;;
4290;SDS011;2159;50.906;7.152;2022-12-29T12:08:27;2.27;;;0.93;;
4290;SDS011;2159;50.906;7.152;2022-12-29T12:10:58;1.90;;;1.07;;
4290;SDS011;2159;50.906;7.152;2022-12-29T12:13:31;1.97;;;1.00;;
4290;SDS011;2159;50.906;7.152;2022-12-29T12:16:02;7.53;;;1.40;;
4290;SDS011;2159;50.906;7.152;2022-12-29T12:18:37;2.10;;;1.00;;
4290;SDS011;2159;50.906;7.152;2022-12-29T12:21:08;3.27;;;1.07;;
4290;SDS011;2159;50.906;7.152;2022-12-29T12:23:40;4.73;;;1.20;;
4290;SDS011;2159;50.906;7.152;2022-12-29T12:26:11;2.43;;;1.20;;
4290;SDS011;2159;50.906;7.152;2022-12-29T12:28:42;2.10;;;1.30;;
4290;SDS011;2159;50.906;7.152;2022-12-29T12:31:16;3.00;;;1.00;;
4290;SDS011;2159;50.906;7.152;2022-12-29T12:33:45;5.10;;;1.00;;
4290;SDS011;2159;50.906;7.152;2022-12-29T12:36:18;4.03;;;1.00;;
4290;SDS011;2159;50.906;7.152;2022-12-29T12:38:51;3.47;;;1.10;;
4290;SDS011;2159;50.906;7.152;2022-12-29T12:41:24;4.13;;;0.93;;
4290;SDS011;2159;50.906;7.152;2022-12-29T12:43:56;1.87;;;1.10;;
4290;SDS011;2159;50.906;7.152;2022-12-29T12:49:25;4.17;;;1.43;;
4290;SDS011;2159;50.906;7.152;2022-12-29T12:51:59;6.33;;;1.17;;
4290;SDS011;2159;50.906;7.152;2022-12-29T12:54:35;7.10;;;1.53;;
4290;SDS011;2159;50.906;7.152;2022-12-29T12:57:08;2.97;;;1.30;;
4290;SDS011;2159;50.906;7.152;2022-12-29T12:59:45;3.37;;;1.10;;
4290;SDS011;2159;50.906;7.152;2022-12-29T13:02:29;4.30;;;1.40;;
4290;SDS011;2159;50.906;7.152;2022-12-29T13:05:09;2.20;;;1.13;;
4290;SDS011;2159;50.906;7.152;2022-12-29T13:07:47;2.87;;;0.97;;
4290;SDS011;2159;50.906;7.152;2022-12-29T13:10:31;3.40;;;1.07;;
4290;SDS011;2159;50.906;7.152;2022-12-29T13:13:05;5.27;;;1.23;;
4290;SDS011;2159;50.906;7.152;2022-12-29T13:15:41;1.70;;;1.20;;
4290;SDS011;2159;50.906;7.152;2022-12-29T13:18:13;4.17;;;1.30;;
4290;SDS011;2159;50.906;7.152;2022-12-29T13:20:44;3.50;;;1.43;;
4290;SDS011;2159;50.906;7.152;2022-12-29T13:23:14;7.60;;;1.47;;
4290;SDS011;2159;50.906;7.152;2022-12-29T13:25:44;2.47;;;1.20;;
4290;SDS011;2159;50.906;7.152;2022-12-29T13:28:17;1.10;;;1.00;;
4290;SDS011;2159;50.906;7.152;2022-12-29T13:30:52;2.97;;;1.07;;
4290;SDS011;2159;50.906;7.152;2022-12-29T13:33:21;3.00;;;1.23;;
4290;SDS011;2159;50.906;7.152;2022-12-29T13:35:53;4.13;;;1.15;;
4290;SDS011;2159;50.906;7.152;2022-12-29T13:38:24;4.33;;;1.17;;
4290;SDS011;2159;50.906;7.152;2022-12-29T13:40:53;3.23;;;1.20;;
4290;SDS011;2159;50.906;7.152;2022-12-29T13:43:22;2.50;;;1.30;;
4290;SDS011;2159;50.906;7.152;2022-12-29T13:45:55;3.25;;;1.33;;
4290;SDS011;2159;50.906;7.152;2022-12-29T13:48:23;3.13;;;1.33;;
4290;SDS011;2159;50.906;7.152;2022-12-29T13:50:55;2.20;;;1.27;;
4290;SDS011;2159;50.906;7.152;2022-12-29T13:53:25;1.73;;;1.10;;
4290;SDS011;2159;50.906;7.152;2022-12-29T13:55:58;3.67;;;1.37;;
4290;SDS011;2159;50.906;7.152;2022-12-29T13:58:27;3.67;;;1.00;;
4290;SDS011;2159;50.906;7.152;2022-12-29T14:01:00;2.87;;;1.20;;
4290;SDS011;2159;50.906;7.152;2022-12-29T14:06:15;2.30;;;1.00;;
4290;SDS011;2159;50.906;7.152;2022-12-29T14:08:44;2.00;;;1.10;;
4290;SDS011;2159;50.906;7.152;2022-12-29T14:11:12;8.33;;;0.90;;
4290;SDS011;2159;50.906;7.152;2022-12-29T14:13:41;4.20;;;1.17;;
4290;SDS011;2159;50.906;7.152;2022-12-29T14:16:23;1.83;;;1.40;;
4290;SDS011;2159;50.906;7.152;2022-12-29T14:18:52;3.33;;;1.40;;
4290;SDS011;2159;50.906;7.152;2022-12-29T14:21:21;2.40;;;1.20;;
4290;SDS011;2159;50.906;7.152;2022-12-29T14:23:54;2.17;;;1.13;;
4290;SDS011;2159;50.906;7.152;2022-12-29T14:29:15;3.90;;;1.17;;
4290;SDS011;2159;50.906;7.152;2022-12-29T14:31:44;4.10;;;1.07;;
4290;SDS011;2159;50.906;7.152;2022-12-29T14:34:16;4.43;;;1.30;;
4290;SDS011;2159;50.906;7.152;2022-12-29T14:36:52;3.27;;;1.30;;
4290;SDS011;2159;50.906;7.152;2022-12-29T14:39:26;2.47;;;1.30;;
4290;SDS011;2159;50.906;7.152;2022-12-29T14:41:59;2.70;;;1.70;;
4290;SDS011;2159;50.906;7.152;2022-12-29T14:44:26;1.80;;;1.60;;
4290;SDS011;2159;50.906;7.152;2022-12-29T14:46:56;2.93;;;1.90;;
4290;SDS011;2159;50.906;7.152;2022-12-29T14:49:25;2.97;;;1.70;;
4290;SDS011;2159;50.906;7.152;2022-12-29T14:51:53;3.07;;;1.80;;
4290;SDS011;2159;50.906;7.152;2022-12-29T14:54:40;2.80;;;1.40;;
4290;SDS011;2159;50.906;7.152;2022-12-29T14:57:10;5.03;;;2.00;;
4290;SDS011;2159;50.906;7.152;2022-12-29T14:59:41;1.73;;;1.30;;
4290;SDS011;2159;50.906;7.152;2022-12-29T15:02:14;3.70;;;1.50;;
4290;SDS011;2159;50.906;7.152;2022-12-29T15:04:43;3.10;;;1.40;;
4290;SDS011;2159;50.906;7.152;2022-12-29T15:07:11;3.10;;;1.47;;
4290;SDS011;2159;50.906;7.152;2022-12-29T15:09:40;7.23;;;1.27;;
4290;SDS011;2159;50.906;7.152;2022-12-29T15:12:12;4.23;;;1.47;;
4290;SDS011;2159;50.906;7.152;2022-12-29T15:14:48;2.50;;;1.20;;
4290;SDS011;2159;50.906;7.152;2022-12-29T15:17:23;2.60;;;1.47;;
4290;SDS011;2159;50.906;7.152;2022-12-29T15:19:51;3.73;;;1.70;;
4290;SDS011;2159;50.906;7.152;2022-12-29T15:22:19;2.10;;;1.50;;
4290;SDS011;2159;50.906;7.152;2022-12-29T15:24:46;4.07;;;1.40;;
4290;SDS011;2159;50.906;7.152;2022-12-29T15:27:15;6.40;;;1.47;;
4290;SDS011;2159;50.906;7.152;2022-12-29T15:29:44;5.20;;;1.63;;
4290;SDS011;2159;50.906;7.152;2022-12-29T15:32:16;3.73;;;1.23;;
4290;SDS011;2159;50.906;7.152;2022-12-29T15:34:46;3.20;;;2.40;;
4290;SDS011;2159;50.906;7.152;2022-12-29T15:37:16;2.30;;;2.10;;
4290;SDS011;2159;50.906;7.152;2022-12-29T15:39:45;3.40;;;1.20;;
4290;SDS011;2159;50.906;7.152;2022-12-29T15:42:18;1.50;;;1.00;;
4290;SDS011;2159;50.906;7.152;2022-12-29T15:44:46;4.33;;;1.30;;
4290;SDS011;2159;50.906;7.152;2022-12-29T15:47:24;4.07;;;1.60;;
4290;SDS011;2159;50.906;7.152;2022-12-29T15:49:58;4.60;;;1.50;;
4290;SDS011;2159;50.906;7.152;2022-12-29T15:52:26;1.83;;;1.00;;
4290;SDS011;2159;50.906;7.152;2022-12-29T15:54:54;3.33;;;2.20;;